Weather History for KGHW - August, 2013

Change the Weather History Date:

Saturday, August 17, 2013

  Actual Average Record
Temperature  
Mean Temperature 68 °F -  
Max Temperature 80 °F 80 °F 98 °F (1988)
Min Temperature 55 °F 58 °F 46 °F (2012)
Cooling Degree Days 2    
Growing Degree Days 18 (Base 50)    
Moisture  
Dew Point 58 °F    
Average Humidity 74    
Maximum Humidity 100    
Minimum Humidity 51    
Precipitation  
Precipitation 0.00 in - - ()
Sea Level Pressure  
Sea Level Pressure 30.13 in    
Wind  
Wind Speed 10 mph (South)    
Max Wind Speed 21 mph    
Max Gust Speed 25 mph    
Visibility 10 miles    
Events      
Averages and records for this station are not official NWS values.
T = Trace of Precipitation, MM = Missing Value Source: NWS Daily Summary

Daily Weather History Graph

Daily Weather History Graph

Search for Another Location

Airport or City:

Trip Planner

Search our weather history database for the weather conditions in past years. The results will help you decide how hot, cold, wet, or windy it might be!

Date:

Astronomy

Aug. 17, 2013 Rise Set
Actual Time 6:24 AM CDT 8:25 PM CDT
Civil Twilight 5:52 AM CDT 8:57 PM CDT
Nautical Twilight 5:12 AM CDT 9:36 PM CDT
Astronomical Twilight 4:28 AM CDT 10:20 PM CDT
Moon 5:46 PM CDT (8/17) 2:22 AM CDT (8/17)
Length of Visible Light 15h 05m
Length of Day
14h 00m
Waxing Gibbous, 84% of the Moon is Illuminated
Aug 17
Waxing Gibbous
Aug 20
Full
Aug 28
Last Quarter
Sep 5
New
Sep 12
First Quarter

Hourly Weather History & Observations

Time (CDT) Temp. Heat Index Dew Point Humidity Pressure Visibility Wind Dir Wind Speed Gust Speed Precip Events Conditions
12:13 AM 57.2 °F - 55.4 °F 94% 30.17 in 10.0 mi South 6.9 mph - N/A   Clear
12:34 AM 55.4 °F - 53.6 °F 94% 30.17 in 10.0 mi South 6.9 mph - N/A   Clear
12:53 AM 55.4 °F - 53.6 °F 94% 30.17 in 10.0 mi South 6.9 mph - N/A   Clear
1:13 AM 55.4 °F - 53.6 °F 94% 30.17 in 10.0 mi South 5.8 mph - N/A   Clear
1:33 AM 55.4 °F - 53.6 °F 94% 30.17 in 10.0 mi South 5.8 mph - N/A   Clear
1:53 AM 55.4 °F - 53.6 °F 94% 30.17 in 10.0 mi South 6.9 mph - N/A   Clear
2:13 AM 55.4 °F - 55.4 °F 100% 30.17 in 10.0 mi South 6.9 mph - N/A   Clear
2:33 AM 55.4 °F - 53.6 °F 94% 30.16 in 10.0 mi South 5.8 mph - N/A   Clear
2:53 AM 55.4 °F - 53.6 °F 94% 30.16 in 10.0 mi South 5.8 mph - N/A   Clear
3:13 AM 55.4 °F - 53.6 °F 94% 30.16 in 10.0 mi South 6.9 mph - N/A   Scattered Clouds
3:33 AM 55.4 °F - 53.6 °F 94% 30.16 in 10.0 mi South 5.8 mph - N/A   Scattered Clouds
3:54 AM 55.4 °F - 53.6 °F 94% 30.16 in 10.0 mi SSE 5.8 mph - N/A   Clear
4:13 AM 55.4 °F - 53.6 °F 94% 30.16 in 10.0 mi SSE 5.8 mph - N/A   Clear
4:33 AM 55.4 °F - 53.6 °F 94% 30.16 in 10.0 mi SSE 6.9 mph - N/A   Clear
4:53 AM 55.4 °F - 53.6 °F 94% 30.16 in 10.0 mi SSE 6.9 mph - N/A   Clear
5:13 AM 55.4 °F - 53.6 °F 94% 30.15 in 10.0 mi SSE 5.8 mph - N/A   Clear
5:33 AM 55.4 °F - 53.6 °F 94% 30.16 in 7.0 mi SSE 5.8 mph - N/A   Clear
5:53 AM 55.4 °F - 53.6 °F 94% 30.16 in 7.0 mi South 6.9 mph - N/A   Clear
6:14 AM 55.4 °F - 53.6 °F 94% 30.16 in 7.0 mi SSE 5.8 mph - N/A   Clear
6:33 AM 55.4 °F - 53.6 °F 94% 30.16 in 7.0 mi SSE 6.9 mph - N/A   Clear
6:53 AM 55.4 °F - 53.6 °F 94% 30.16 in 7.0 mi SSE 5.8 mph - N/A   Clear
7:13 AM 57.2 °F - 55.4 °F 94% 30.17 in 7.0 mi SSE 5.8 mph - N/A   Clear
7:33 AM 57.2 °F - 55.4 °F 94% 30.17 in 7.0 mi South 5.8 mph - N/A   Clear
7:53 AM 60.8 °F - 57.2 °F 88% 30.17 in 10.0 mi South 8.1 mph - N/A   Clear
8:13 AM 60.8 °F - 57.2 °F 88% 30.17 in 10.0 mi South 10.4 mph - N/A   Clear
8:34 AM 62.6 °F - 57.2 °F 82% 30.16 in 10.0 mi South 10.4 mph - N/A   Clear
8:53 AM 64.4 °F - 57.2 °F 77% 30.16 in 10.0 mi South 10.4 mph - N/A   Clear
9:13 AM 66.2 °F - 57.2 °F 73% 30.16 in 10.0 mi South 12.7 mph - N/A   Clear
9:33 AM 68.0 °F - 59.0 °F 73% 30.16 in 10.0 mi South 15.0 mph 18.4 mph N/A   Clear
9:53 AM 69.8 °F - 57.2 °F 64% 30.16 in 10.0 mi South 13.8 mph - N/A   Clear
10:14 AM 71.6 °F - 59.0 °F 64% 30.16 in 10.0 mi South 16.1 mph 21.9 mph N/A   Clear
10:33 AM 71.6 °F - 59.0 °F 64% 30.16 in 10.0 mi South 16.1 mph 24.2 mph N/A   Clear
10:53 AM 73.4 °F - 59.0 °F 61% 30.16 in 10.0 mi South 17.3 mph - N/A   Clear
11:13 AM 73.4 °F - 59.0 °F 61% 30.16 in 10.0 mi South 16.1 mph - N/A   Clear
11:33 AM 73.4 °F - 60.8 °F 65% 30.16 in 10.0 mi SSW 12.7 mph 19.6 mph N/A   Clear
11:54 AM 75.2 °F - 59.0 °F 57% 30.16 in 10.0 mi South 13.8 mph - N/A   Clear
12:13 PM 75.2 °F - 60.8 °F 61% 30.15 in 10.0 mi South 16.1 mph 21.9 mph N/A   Scattered Clouds
12:33 PM 75.2 °F - 60.8 °F 61% 30.15 in 10.0 mi South 16.1 mph 20.7 mph N/A   Scattered Clouds
12:54 PM 77.0 °F - 59.0 °F 54% 30.14 in 10.0 mi South 16.1 mph 23.0 mph N/A   Scattered Clouds
1:13 PM 78.8 °F - 59.0 °F 51% 30.13 in 10.0 mi SSW 15.0 mph 21.9 mph N/A   Clear
1:33 PM 78.8 °F - 60.8 °F 54% 30.13 in 10.0 mi South 16.1 mph 20.7 mph N/A   Scattered Clouds
1:53 PM 78.8 °F - 59.0 °F 51% 30.12 in 10.0 mi South 16.1 mph 21.9 mph N/A   Scattered Clouds
2:13 PM 78.8 °F - 60.8 °F 54% 30.12 in 10.0 mi South 17.3 mph - N/A   Scattered Clouds
2:34 PM 78.8 °F - 59.0 °F 51% 30.11 in 10.0 mi South 17.3 mph 20.7 mph N/A   Scattered Clouds
2:53 PM 80.6 °F 81.5 °F 60.8 °F 51% 30.11 in 10.0 mi South 17.3 mph 24.2 mph N/A   Scattered Clouds
3:13 PM 80.6 °F 81.5 °F 60.8 °F 51% 30.10 in 10.0 mi South 17.3 mph 21.9 mph N/A   Scattered Clouds
3:33 PM 78.8 °F - 59.0 °F 51% 30.11 in 10.0 mi South 15.0 mph 21.9 mph N/A   Scattered Clouds
3:53 PM 80.6 °F 81.5 °F 60.8 °F 51% 30.10 in 10.0 mi South 18.4 mph 21.9 mph N/A   Scattered Clouds
4:13 PM 78.8 °F - 60.8 °F 54% 30.10 in 10.0 mi South 16.1 mph - N/A   Scattered Clouds
4:33 PM 78.8 °F - 60.8 °F 54% 30.10 in 10.0 mi South 17.3 mph 25.3 mph N/A   Clear
4:54 PM 78.8 °F - 60.8 °F 54% 30.09 in 10.0 mi South 15.0 mph 24.2 mph N/A   Scattered Clouds
5:13 PM 78.8 °F - 60.8 °F 54% 30.09 in 10.0 mi South 15.0 mph - N/A   Scattered Clouds
5:33 PM 78.8 °F - 60.8 °F 54% 30.09 in 10.0 mi South 16.1 mph 19.6 mph N/A   Clear
5:53 PM 80.6 °F 81.5 °F 60.8 °F 51% 30.09 in 10.0 mi South 20.7 mph 25.3 mph N/A   Scattered Clouds
6:13 PM 78.8 °F - 60.8 °F 54% 30.09 in 10.0 mi SSE 13.8 mph 21.9 mph N/A   Scattered Clouds
6:33 PM 77.0 °F - 60.8 °F 57% 30.09 in 10.0 mi South 17.3 mph - N/A   Scattered Clouds
6:53 PM 77.0 °F - 60.8 °F 57% 30.09 in 10.0 mi South 15.0 mph - N/A   Clear
7:13 PM 75.2 °F - 60.8 °F 61% 30.09 in 10.0 mi South 12.7 mph - N/A   Clear
7:33 PM 75.2 °F - 60.8 °F 61% 30.09 in 10.0 mi South 10.4 mph - N/A   Clear
7:53 PM 73.4 °F - 60.8 °F 65% 30.09 in 10.0 mi South 10.4 mph - N/A   Clear
8:13 PM 71.6 °F - 60.8 °F 69% 30.09 in 10.0 mi South 8.1 mph - N/A   Clear
8:33 PM 69.8 °F - 60.8 °F 73% 30.09 in 10.0 mi SSE 6.9 mph - N/A   Clear
8:54 PM 69.8 °F - 60.8 °F 73% 30.09 in 10.0 mi SSE 9.2 mph - N/A   Clear
9:13 PM 66.2 °F - 60.8 °F 83% 30.09 in 10.0 mi SSE 9.2 mph - N/A   Clear
9:33 PM 66.2 °F - 60.8 °F 83% 30.09 in 10.0 mi South 9.2 mph - N/A   Clear
9:53 PM 66.2 °F - 60.8 °F 83% 30.09 in 10.0 mi South 9.2 mph - N/A   Clear
10:13 PM 66.2 °F - 60.8 °F 83% 30.09 in 10.0 mi South 9.2 mph - N/A   Clear
10:34 PM 66.2 °F - 60.8 °F 83% 30.09 in 10.0 mi South 9.2 mph - N/A   Clear
10:53 PM 66.2 °F - 59.0 °F 78% 30.08 in 10.0 mi South 9.2 mph - N/A   Clear
11:13 PM 64.4 °F - 59.0 °F 83% 30.08 in 10.0 mi South 8.1 mph - N/A   Clear
11:33 PM 64.4 °F - 59.0 °F 83% 30.08 in 10.0 mi South 9.2 mph - N/A   Clear
11:53 PM 64.4 °F - 59.0 °F 83% 30.08 in 10.0 mi South 9.2 mph - N/A   Clear